createdAt,value
2022-08-03T00:01:54.462Z,21.30
2022-08-03T00:04:33.644Z,21.30
2022-08-03T00:07:03.865Z,21.30
2022-08-03T00:09:35.433Z,21.30
2022-08-03T00:12:04.194Z,21.30
2022-08-03T00:14:32.320Z,21.20
2022-08-03T00:17:00.616Z,21.20
2022-08-03T00:19:29.015Z,21.20
2022-08-03T00:21:57.141Z,21.10
2022-08-03T00:24:29.161Z,21.10
2022-08-03T00:26:57.251Z,21.10
2022-08-03T00:29:25.397Z,21.10
2022-08-03T00:32:00.342Z,21.00
2022-08-03T00:34:36.169Z,21.00
2022-08-03T00:37:04.784Z,21.00
2022-08-03T20:38:43.613Z,26.70
2022-08-03T20:41:15.078Z,26.00
2022-08-03T20:43:43.670Z,26.00
2022-08-03T20:46:31.823Z,26.00
2022-08-03T20:49:14.395Z,26.10
2022-08-03T20:51:49.927Z,26.20
2022-08-03T20:54:36.458Z,26.30
2022-08-03T20:57:09.558Z,26.40
2022-08-03T20:59:50.064Z,26.60
2022-08-03T21:02:29.505Z,26.70
2022-08-03T21:05:03.726Z,26.70
2022-08-03T21:07:45.950Z,26.60
2022-08-03T21:10:32.270Z,26.70
2022-08-03T21:13:17.069Z,26.80
2022-08-03T21:16:02.883Z,26.80
2022-08-03T21:18:42.470Z,26.80
2022-08-03T21:21:14.103Z,26.80
2022-08-03T21:23:53.163Z,26.80
2022-08-03T21:26:26.961Z,26.80
2022-08-03T21:28:57.770Z,26.70
2022-08-03T21:31:28.086Z,26.70
2022-08-03T21:33:58.295Z,26.70
2022-08-03T21:36:34.595Z,26.60
2022-08-03T21:39:04.834Z,26.60
2022-08-03T21:41:36.818Z,26.60
2022-08-03T21:44:07.025Z,26.50
2022-08-03T21:46:37.020Z,26.50
2022-08-03T21:50:05.504Z,26.40
2022-08-03T21:52:00.239Z,26.40
2022-08-03T21:54:35.645Z,26.40
2022-08-03T21:57:09.926Z,26.30
2022-08-03T21:59:39.713Z,26.20
2022-08-03T22:02:22.416Z,26.20
2022-08-03T22:04:56.375Z,26.10
2022-08-03T22:07:26.398Z,26.00
2022-08-03T22:09:55.953Z,25.90
2022-08-03T22:12:28.137Z,25.80
2022-08-03T22:15:01.549Z,25.80
2022-08-03T22:17:55.191Z,25.80
2022-08-03T22:20:23.973Z,25.80
2022-08-03T22:22:56.932Z,25.70
2022-08-03T22:25:29.887Z,25.70
2022-08-03T22:28:01.049Z,25.70
2022-08-03T22:30:29.848Z,25.60
2022-08-03T22:32:59.645Z,25.60
2022-08-03T22:35:28.742Z,25.60
2022-08-03T22:38:02.170Z,25.50
2022-08-03T22:40:36.236Z,25.40
2022-08-03T22:43:06.807Z,25.40
2022-08-03T22:46:06.112Z,25.40
2022-08-03T22:48:24.563Z,25.30
2022-08-03T22:50:52.799Z,25.20
2022-08-03T22:53:23.732Z,25.20
2022-08-03T22:55:56.298Z,25.10
2022-08-03T22:58:26.466Z,25.00
2022-08-03T23:00:58.697Z,25.00
2022-08-03T23:04:00.863Z,24.90
2022-08-03T23:06:20.542Z,24.90
2022-08-03T23:08:49.811Z,24.80
2022-08-03T23:11:22.269Z,24.70
2022-08-03T23:13:55.390Z,24.70
2022-08-03T23:16:29.270Z,24.70
2022-08-03T23:19:16.658Z,24.60
2022-08-03T23:21:53.106Z,24.60
2022-08-03T23:24:30.493Z,24.60
2022-08-03T23:26:59.251Z,24.60
2022-08-03T23:29:31.398Z,24.50
2022-08-03T23:32:01.754Z,24.50
2022-08-03T23:34:49.997Z,24.40
2022-08-03T23:37:19.265Z,24.40
2022-08-03T23:39:49.317Z,24.30
2022-08-03T23:42:19.443Z,24.30
2022-08-03T23:44:55.681Z,24.30
2022-08-03T23:47:46.999Z,24.20
2022-08-03T23:50:23.759Z,24.20
2022-08-03T23:53:01.628Z,24.20
2022-08-03T23:55:53.336Z,24.10
2022-08-03T23:58:34.296Z,24.10
